sensor_id;sensor_type;location;lat;lon;timestamp;pressure;altitude;pressure_sealevel;temperature;humidity
75513;BME280;64090;49.770;18.760;2023-01-08T00:02:51;97577.31;;;2.68;87.90
75513;BME280;64090;49.770;18.760;2023-01-08T00:06:06;97579.68;;;2.71;87.80
75513;BME280;64090;49.770;18.760;2023-01-08T00:09:11;97571.80;;;2.69;87.79
75513;BME280;64090;49.770;18.760;2023-01-08T00:12:17;97568.30;;;2.66;87.91
75513;BME280;64090;49.770;18.760;2023-01-08T00:16:15;97568.14;;;2.76;88.28
75513;BME280;64090;49.770;18.760;2023-01-08T00:19:20;97567.50;;;2.82;87.95
75513;BME280;64090;49.770;18.760;2023-01-08T00:22:47;97562.48;;;2.91;88.32
75513;BME280;64090;49.770;18.760;2023-01-08T00:26:13;97559.64;;;3.03;88.02
75513;BME280;64090;49.770;18.760;2023-01-08T00:29:25;97560.21;;;3.12;88.30
75513;BME280;64090;49.770;18.760;2023-01-08T00:32:35;97557.23;;;3.20;88.02
75513;BME280;64090;49.770;18.760;2023-01-08T00:35:43;97551.91;;;3.23;87.82
75513;BME280;64090;49.770;18.760;2023-01-08T00:38:49;97551.98;;;3.26;88.03
75513;BME280;64090;49.770;18.760;2023-01-08T00:41:54;97550.02;;;3.35;87.91
75513;BME280;64090;49.770;18.760;2023-01-08T00:45:05;97545.48;;;3.43;88.09
75513;BME280;64090;49.770;18.760;2023-01-08T00:48:12;97535.27;;;3.51;87.94
75513;BME280;64090;49.770;18.760;2023-01-08T00:51:23;97531.77;;;3.59;87.94
75513;BME280;64090;49.770;18.760;2023-01-08T00:54:34;97530.88;;;3.64;87.62
75513;BME280;64090;49.770;18.760;2023-01-08T00:57:45;97532.39;;;3.65;87.83
75513;BME280;64090;49.770;18.760;2023-01-08T01:00:48;97539.73;;;3.73;87.68
75513;BME280;64090;49.770;18.760;2023-01-08T01:04:11;97538.55;;;3.76;87.46
75513;BME280;64090;49.770;18.760;2023-01-08T01:07:36;97537.99;;;3.78;87.46
75513;BME280;64090;49.770;18.760;2023-01-08T01:11:24;97530.66;;;3.78;87.42
75513;BME280;64090;49.770;18.760;2023-01-08T01:14:48;97530.61;;;3.72;87.45
75513;BME280;64090;49.770;18.760;2023-01-08T01:17:51;97527.33;;;3.66;87.43
75513;BME280;64090;49.770;18.760;2023-01-08T01:20:57;97518.01;;;3.64;87.28
75513;BME280;64090;49.770;18.760;2023-01-08T01:24:10;97518.77;;;3.58;87.32
75513;BME280;64090;49.770;18.760;2023-01-08T01:27:37;97512.86;;;3.55;87.74
75513;BME280;64090;49.770;18.760;2023-01-08T01:30:54;97512.40;;;3.52;87.65
75513;BME280;64090;49.770;18.760;2023-01-08T01:34:15;97507.67;;;3.49;87.68
75513;BME280;64090;49.770;18.760;2023-01-08T01:37:41;97499.83;;;3.50;87.96
75513;BME280;64090;49.770;18.760;2023-01-08T01:40:47;97497.31;;;3.47;87.77
75513;BME280;64090;49.770;18.760;2023-01-08T01:43:50;97485.23;;;3.49;88.04
75513;BME280;64090;49.770;18.760;2023-01-08T01:47:21;97485.70;;;3.52;87.78
75513;BME280;64090;49.770;18.760;2023-01-08T01:50:47;97489.23;;;3.48;87.75
75513;BME280;64090;49.770;18.760;2023-01-08T01:53:53;97476.71;;;3.42;87.71
75513;BME280;64090;49.770;18.760;2023-01-08T01:56:59;97477.90;;;3.38;87.75
75513;BME280;64090;49.770;18.760;2023-01-08T02:00:05;97477.56;;;3.37;88.08
75513;BME280;64090;49.770;18.760;2023-01-08T02:03:21;97475.27;;;3.44;88.33
75513;BME280;64090;49.770;18.760;2023-01-08T02:06:41;97471.19;;;3.51;88.23
75513;BME280;64090;49.770;18.760;2023-01-08T02:10:41;97462.72;;;3.63;88.32
75513;BME280;64090;49.770;18.760;2023-01-08T02:15:15;97468.42;;;3.80;88.04
75513;BME280;64090;49.770;18.760;2023-01-08T02:18:45;97474.39;;;3.83;87.94
75513;BME280;64090;49.770;18.760;2023-01-08T02:29:23;97465.23;;;3.93;87.43
75513;BME280;64090;49.770;18.760;2023-01-08T02:32:50;97455.27;;;3.91;87.16
75513;BME280;64090;49.770;18.760;2023-01-08T02:43:11;97453.57;;;3.82;87.09
75513;BME280;64090;49.770;18.760;2023-01-08T02:46:26;97459.55;;;3.82;87.09
75513;BME280;64090;49.770;18.760;2023-01-08T02:55:52;97446.70;;;3.87;87.34
75513;BME280;64090;49.770;18.760;2023-01-08T02:59:02;97442.45;;;3.91;87.14
75513;BME280;64090;49.770;18.760;2023-01-08T03:02:11;97440.91;;;3.93;87.16
75513;BME280;64090;49.770;18.760;2023-01-08T03:05:25;97442.98;;;3.93;86.97
75513;BME280;64090;49.770;18.760;2023-01-08T03:08:33;97439.88;;;3.89;86.89
75513;BME280;64090;49.770;18.760;2023-01-08T03:11:57;97430.09;;;3.84;87.01
75513;BME280;64090;49.770;18.760;2023-01-08T03:15:12;97431.21;;;3.83;86.91
75513;BME280;64090;49.770;18.760;2023-01-08T03:18:26;97425.50;;;3.79;86.86
75513;BME280;64090;49.770;18.760;2023-01-08T03:21:44;97422.83;;;3.75;86.83
75513;BME280;64090;49.770;18.760;2023-01-08T03:24:52;97428.59;;;3.71;86.87
75513;BME280;64090;49.770;18.760;2023-01-08T03:28:12;97430.54;;;3.65;86.79
75513;BME280;64090;49.770;18.760;2023-01-08T03:31:28;97431.55;;;3.55;86.78
75513;BME280;64090;49.770;18.760;2023-01-08T03:34:39;97442.45;;;3.46;86.92
75513;BME280;64090;49.770;18.760;2023-01-08T03:38:10;97449.82;;;3.33;86.76
75513;BME280;64090;49.770;18.760;2023-01-08T03:41:24;97459.59;;;3.19;87.07
75513;BME280;64090;49.770;18.760;2023-01-08T03:44:31;97455.73;;;3.11;86.93
75513;BME280;64090;49.770;18.760;2023-01-08T03:47:42;97458.29;;;3.00;87.16
75513;BME280;64090;49.770;18.760;2023-01-08T03:50:52;97450.71;;;2.96;87.21
75513;BME280;64090;49.770;18.760;2023-01-08T03:53:59;97450.09;;;2.95;87.22
75513;BME280;64090;49.770;18.760;2023-01-08T03:57:03;97442.34;;;2.95;87.54
75513;BME280;64090;49.770;18.760;2023-01-08T04:03:04;97437.31;;;3.05;88.08
75513;BME280;64090;49.770;18.760;2023-01-08T04:10:43;97443.12;;;3.13;87.60
75513;BME280;64090;49.770;18.760;2023-01-08T04:13:47;97442.36;;;3.10;87.66
75513;BME280;64090;49.770;18.760;2023-01-08T04:16:57;97437.88;;;3.09;87.67
75513;BME280;64090;49.770;18.760;2023-01-08T04:20:31;97430.16;;;3.11;87.54
75513;BME280;64090;49.770;18.760;2023-01-08T04:27:51;97408.83;;;3.11;87.88
75513;BME280;64090;49.770;18.760;2023-01-08T04:30:55;97409.74;;;3.14;87.70
75513;BME280;64090;49.770;18.760;2023-01-08T04:34:18;97411.80;;;3.13;87.70
75513;BME280;64090;49.770;18.760;2023-01-08T04:37:22;97411.88;;;3.09;87.56
75513;BME280;64090;49.770;18.760;2023-01-08T04:40:34;97411.15;;;3.11;87.72
75513;BME280;64090;49.770;18.760;2023-01-08T04:43:39;97403.95;;;3.11;87.60
75513;BME280;64090;49.770;18.760;2023-01-08T04:47:01;97405.96;;;3.12;87.52
75513;BME280;64090;49.770;18.760;2023-01-08T04:50:06;97402.23;;;3.05;87.28
75513;BME280;64090;49.770;18.760;2023-01-08T04:53:12;97402.60;;;2.97;87.42
75513;BME280;64090;49.770;18.760;2023-01-08T04:58:24;97409.20;;;2.85;87.41
75513;BME280;64090;49.770;18.760;2023-01-08T05:01:31;97412.31;;;2.74;87.41
75513;BME280;64090;49.770;18.760;2023-01-08T05:04:35;97413.10;;;2.66;87.52
75513;BME280;64090;49.770;18.760;2023-01-08T05:15:11;97411.42;;;2.51;88.15
75513;BME280;64090;49.770;18.760;2023-01-08T05:18:14;97412.10;;;2.52;88.16
75513;BME280;64090;49.770;18.760;2023-01-08T05:21:34;97404.79;;;2.52;87.96
75513;BME280;64090;49.770;18.760;2023-01-08T05:24:38;97391.64;;;2.49;87.90
75513;BME280;64090;49.770;18.760;2023-01-08T05:27:43;97388.01;;;2.52;88.10
75513;BME280;64090;49.770;18.760;2023-01-08T05:31:10;97386.00;;;2.54;88.21
75513;BME280;64090;49.770;18.760;2023-01-08T05:34:34;97386.40;;;2.54;87.99
75513;BME280;64090;49.770;18.760;2023-01-08T05:37:37;97380.79;;;2.52;87.96
75513;BME280;64090;49.770;18.760;2023-01-08T05:41:08;97380.40;;;2.53;87.89
75513;BME280;64090;49.770;18.760;2023-01-08T05:44:12;97382.63;;;2.52;88.20
75513;BME280;64090;49.770;18.760;2023-01-08T05:47:28;97381.57;;;2.53;88.49
75513;BME280;64090;49.770;18.760;2023-01-08T05:50:40;97383.70;;;2.54;88.13
75513;BME280;64090;49.770;18.760;2023-01-08T05:53:54;97381.58;;;2.53;87.82
75513;BME280;64090;49.770;18.760;2023-01-08T05:57:05;97382.20;;;2.48;87.89
75513;BME280;64090;49.770;18.760;2023-01-08T06:00:50;97378.13;;;2.50;87.82
75513;BME280;64090;49.770;18.760;2023-01-08T06:04:02;97375.23;;;2.48;87.99
75513;BME280;64090;49.770;18.760;2023-01-08T06:07:06;97377.83;;;2.54;88.02
75513;BME280;64090;49.770;18.760;2023-01-08T06:10:09;97384.46;;;2.57;87.81
75513;BME280;64090;49.770;18.760;2023-01-08T06:13:17;97379.88;;;2.58;87.68
75513;BME280;64090;49.770;18.760;2023-01-08T06:16:22;97372.14;;;2.52;87.66
75513;BME280;64090;49.770;18.760;2023-01-08T06:19:29;97369.08;;;2.44;87.68
75513;BME280;64090;49.770;18.760;2023-01-08T06:22:54;97366.63;;;2.38;87.73
75513;BME280;64090;49.770;18.760;2023-01-08T06:42:21;97362.98;;;2.41;88.58
75513;BME280;64090;49.770;18.760;2023-01-08T06:45:26;97362.78;;;2.49;88.43
75513;BME280;64090;49.770;18.760;2023-01-08T06:50:38;97358.08;;;2.54;88.08
75513;BME280;64090;49.770;18.760;2023-01-08T06:53:42;97358.92;;;2.56;88.39
75513;BME280;64090;49.770;18.760;2023-01-08T06:56:49;97363.44;;;2.69;88.16
75513;BME280;64090;49.770;18.760;2023-01-08T06:59:56;97359.95;;;2.80;87.95
75513;BME280;64090;49.770;18.760;2023-01-08T07:03:04;97354.54;;;2.85;87.72
75513;BME280;64090;49.770;18.760;2023-01-08T07:06:20;97352.27;;;2.87;87.59
75513;BME280;64090;49.770;18.760;2023-01-08T07:09:24;97357.52;;;2.88;87.53
75513;BME280;64090;49.770;18.760;2023-01-08T07:15:24;97359.64;;;2.96;87.42
75513;BME280;64090;49.770;18.760;2023-01-08T07:19:02;97346.27;;;3.08;87.62
75513;BME280;64090;49.770;18.760;2023-01-08T07:22:10;97342.70;;;3.23;87.48
75513;BME280;64090;49.770;18.760;2023-01-08T07:25:15;97342.95;;;3.43;87.29
75513;BME280;64090;49.770;18.760;2023-01-08T07:28:28;97334.09;;;3.63;87.05
75513;BME280;64090;49.770;18.760;2023-01-08T07:31:35;97332.70;;;3.85;87.04
75513;BME280;64090;49.770;18.760;2023-01-08T07:34:49;97335.34;;;4.07;86.75
75513;BME280;64090;49.770;18.760;2023-01-08T07:38:02;97325.95;;;4.26;86.49
75513;BME280;64090;49.770;18.760;2023-01-08T07:41:07;97323.15;;;4.44;86.12
75513;BME280;64090;49.770;18.760;2023-01-08T07:44:46;97312.70;;;4.67;86.24
75513;BME280;64090;49.770;18.760;2023-01-08T07:47:51;97311.00;;;4.85;85.80
75513;BME280;64090;49.770;18.760;2023-01-08T07:50:53;97309.86;;;5.04;85.67
75513;BME280;64090;49.770;18.760;2023-01-08T07:53:55;97302.98;;;5.22;85.70
75513;BME280;64090;49.770;18.760;2023-01-08T07:56:57;97300.56;;;5.41;85.12
75513;BME280;64090;49.770;18.760;2023-01-08T08:00:01;97294.73;;;5.59;85.00
75513;BME280;64090;49.770;18.760;2023-01-08T08:03:06;97289.92;;;5.73;84.81
75513;BME280;64090;49.770;18.760;2023-01-08T08:06:09;97288.70;;;5.87;84.22
75513;BME280;64090;49.770;18.760;2023-01-08T08:13:03;97282.64;;;6.17;83.36
75513;BME280;64090;49.770;18.760;2023-01-08T08:16:16;97282.70;;;6.26;83.82
75513;BME280;64090;49.770;18.760;2023-01-08T08:19:21;97284.17;;;6.33;83.56
75513;BME280;64090;49.770;18.760;2023-01-08T08:23:22;97286.80;;;6.44;83.54
75513;BME280;64090;49.770;18.760;2023-01-08T08:30:34;97286.73;;;6.62;83.13
75513;BME280;64090;49.770;18.760;2023-01-08T08:33:46;97286.83;;;6.73;82.65
75513;BME280;64090;49.770;18.760;2023-01-08T08:36:51;97283.05;;;6.79;82.59
75513;BME280;64090;49.770;18.760;2023-01-08T08:39:54;97282.88;;;6.85;82.38
75513;BME280;64090;49.770;18.760;2023-01-08T08:43:03;97280.31;;;6.89;82.06
75513;BME280;64090;49.770;18.760;2023-01-08T08:46:24;97282.56;;;6.92;81.95
75513;BME280;64090;49.770;18.760;2023-01-08T08:49:33;97279.83;;;6.95;82.03
75513;BME280;64090;49.770;18.760;2023-01-08T08:52:37;97280.67;;;6.96;81.87
75513;BME280;64090;49.770;18.760;2023-01-08T08:56:02;97286.20;;;6.93;81.73
75513;BME280;64090;49.770;18.760;2023-01-08T09:06:01;97285.27;;;6.88;81.00
75513;BME280;64090;49.770;18.760;2023-01-08T09:09:06;97288.09;;;6.87;80.99
75513;BME280;64090;49.770;18.760;2023-01-08T09:12:13;97285.11;;;6.84;81.36
75513;BME280;64090;49.770;18.760;2023-01-08T09:15:24;97278.92;;;6.77;80.49
75513;BME280;64090;49.770;18.760;2023-01-08T09:18:31;97269.77;;;6.70;80.04
75513;BME280;64090;49.770;18.760;2023-01-08T09:21:42;97270.40;;;6.66;80.06
75513;BME280;64090;49.770;18.760;2023-01-08T09:24:49;97265.75;;;6.65;79.61
75513;BME280;64090;49.770;18.760;2023-01-08T09:28:10;97259.63;;;6.66;80.35
75513;BME280;64090;49.770;18.760;2023-01-08T09:31:29;97256.05;;;6.65;80.51
75513;BME280;64090;49.770;18.760;2023-01-08T09:34:57;97246.14;;;6.74;80.51
75513;BME280;64090;49.770;18.760;2023-01-08T09:38:01;97236.86;;;6.89;80.65
75513;BME280;64090;49.770;18.760;2023-01-08T09:41:44;97224.93;;;7.09;80.31
75513;BME280;64090;49.770;18.760;2023-01-08T09:58:26;97189.77;;;8.21;78.31
75513;BME280;64090;49.770;18.760;2023-01-08T10:02:47;97175.66;;;8.43;75.49
75513;BME280;64090;49.770;18.760;2023-01-08T10:12:08;97148.61;;;8.77;75.55
75513;BME280;64090;49.770;18.760;2023-01-08T10:16:55;97142.86;;;8.91;76.13
75513;BME280;64090;49.770;18.760;2023-01-08T10:21:22;97140.96;;;8.98;74.75
75513;BME280;64090;49.770;18.760;2023-01-08T10:25:13;97133.19;;;9.06;75.18
75513;BME280;64090;49.770;18.760;2023-01-08T10:29:34;97132.12;;;9.08;75.19
75513;BME280;64090;49.770;18.760;2023-01-08T10:33:50;97127.92;;;9.15;74.65
75513;BME280;64090;49.770;18.760;2023-01-08T10:38:57;97115.95;;;9.20;73.49
75513;BME280;64090;49.770;18.760;2023-01-08T10:43:19;97107.80;;;9.22;73.52
75513;BME280;64090;49.770;18.760;2023-01-08T10:47:27;97101.32;;;9.17;72.34
75513;BME280;64090;49.770;18.760;2023-01-08T10:51:26;97105.15;;;9.17;73.04
75513;BME280;64090;49.770;18.760;2023-01-08T10:55:31;97102.61;;;9.28;73.75
75513;BME280;64090;49.770;18.760;2023-01-08T10:59:18;97102.14;;;9.50;73.47
75513;BME280;64090;49.770;18.760;2023-01-08T11:02:43;97094.30;;;9.68;72.43
75513;BME280;64090;49.770;18.760;2023-01-08T11:06:50;97090.13;;;9.88;72.75
75513;BME280;64090;49.770;18.760;2023-01-08T11:10:27;97083.71;;;10.01;72.13
75513;BME280;64090;49.770;18.760;2023-01-08T11:14:39;97078.73;;;10.15;72.13
75513;BME280;64090;49.770;18.760;2023-01-08T11:23:03;97078.80;;;10.33;71.73
75513;BME280;64090;49.770;18.760;2023-01-08T11:35:53;97069.74;;;9.97;69.86
75513;BME280;64090;49.770;18.760;2023-01-08T11:39:39;97065.27;;;9.70;66.84
75513;BME280;64090;49.770;18.760;2023-01-08T11:43:26;97071.52;;;9.59;69.42
75513;BME280;64090;49.770;18.760;2023-01-08T11:47:44;97062.95;;;9.46;68.07
75513;BME280;64090;49.770;18.760;2023-01-08T11:51:31;97056.84;;;9.38;69.68
75513;BME280;64090;49.770;18.760;2023-01-08T11:56:19;97043.68;;;9.22;68.68
75513;BME280;64090;49.770;18.760;2023-01-08T12:08:52;97036.30;;;8.92;68.61
75513;BME280;64090;49.770;18.760;2023-01-08T12:33:48;97021.98;;;8.81;69.70
75513;BME280;64090;49.770;18.760;2023-01-08T12:37:01;97022.91;;;8.79;69.77
75513;BME280;64090;49.770;18.760;2023-01-08T12:41:06;97031.30;;;8.76;69.41
75513;BME280;64090;49.770;18.760;2023-01-08T12:45:39;97040.08;;;8.73;69.11
75513;BME280;64090;49.770;18.760;2023-01-08T12:49:09;97035.80;;;8.70;69.40
75513;BME280;64090;49.770;18.760;2023-01-08T12:52:49;97046.88;;;8.72;69.68
75513;BME280;64090;49.770;18.760;2023-01-08T12:56:51;97044.35;;;8.74;69.86
75513;BME280;64090;49.770;18.760;2023-01-08T13:06:14;97046.13;;;8.55;69.31
75513;BME280;64090;49.770;18.760;2023-01-08T13:09:22;97057.55;;;8.52;69.97
75513;BME280;64090;49.770;18.760;2023-01-08T13:12:49;97055.09;;;8.45;69.48
75513;BME280;64090;49.770;18.760;2023-01-08T13:16:23;97051.90;;;8.43;69.32
75513;BME280;64090;49.770;18.760;2023-01-08T13:20:04;97052.08;;;8.39;68.85
75513;BME280;64090;49.770;18.760;2023-01-08T13:44:59;97059.31;;;7.74;70.45
75513;BME280;64090;49.770;18.760;2023-01-08T13:49:47;97058.30;;;7.56;71.03
75513;BME280;64090;49.770;18.760;2023-01-08T13:53:37;97060.41;;;7.41;71.20
75513;BME280;64090;49.770;18.760;2023-01-08T13:57:03;97056.41;;;7.28;71.38
75513;BME280;64090;49.770;18.760;2023-01-08T14:01:08;97051.18;;;7.18;71.74
75513;BME280;64090;49.770;18.760;2023-01-08T14:05:18;97058.20;;;7.11;72.08
75513;BME280;64090;49.770;18.760;2023-01-08T14:09:22;97064.93;;;7.06;72.14
75513;BME280;64090;49.770;18.760;2023-01-08T14:13:46;97070.56;;;6.97;72.63
75513;BME280;64090;49.770;18.760;2023-01-08T14:26:36;97058.90;;;6.64;73.38
75513;BME280;64090;49.770;18.760;2023-01-08T14:30:21;97061.22;;;6.50;73.47
75513;BME280;64090;49.770;18.760;2023-01-08T14:34:45;97063.73;;;6.31;73.88
75513;BME280;64090;49.770;18.760;2023-01-08T14:38:31;97068.39;;;6.15;74.10
75513;BME280;64090;49.770;18.760;2023-01-08T14:42:43;97065.46;;;6.01;74.59
75513;BME280;64090;49.770;18.760;2023-01-08T14:47:13;97047.52;;;5.85;74.78
75513;BME280;64090;49.770;18.760;2023-01-08T14:51:36;97035.05;;;5.72;75.07
75513;BME280;64090;49.770;18.760;2023-01-08T14:56:14;97026.00;;;5.58;75.10
75513;BME280;64090;49.770;18.760;2023-01-08T15:00:30;97022.17;;;5.43;75.43
75513;BME280;64090;49.770;18.760;2023-01-08T15:05:00;97015.58;;;5.27;75.73
75513;BME280;64090;49.770;18.760;2023-01-08T15:09:12;97019.08;;;5.14;75.89
75513;BME280;64090;49.770;18.760;2023-01-08T15:13:29;97007.29;;;5.02;76.09
75513;BME280;64090;49.770;18.760;2023-01-08T15:17:30;96992.49;;;4.89;76.42
75513;BME280;64090;49.770;18.760;2023-01-08T15:21:48;96992.96;;;4.84;76.92
75513;BME280;64090;49.770;18.760;2023-01-08T15:26:02;96988.33;;;4.86;77.61
75513;BME280;64090;49.770;18.760;2023-01-08T15:29:31;96977.42;;;4.93;77.78
75513;BME280;64090;49.770;18.760;2023-01-08T15:33:29;96984.98;;;5.09;78.35
75513;BME280;64090;49.770;18.760;2023-01-08T15:37:14;96982.20;;;5.25;77.90
75513;BME280;64090;49.770;18.760;2023-01-08T15:40:38;96977.35;;;5.36;78.09
75513;BME280;64090;49.770;18.760;2023-01-08T15:44:04;96978.35;;;5.45;77.76
75513;BME280;64090;49.770;18.760;2023-01-08T15:47:19;96969.05;;;5.49;77.97
75513;BME280;64090;49.770;18.760;2023-01-08T15:50:26;96973.19;;;5.54;77.87
75513;BME280;64090;49.770;18.760;2023-01-08T15:53:50;96974.52;;;5.60;78.09
75513;BME280;64090;49.770;18.760;2023-01-08T15:57:17;96976.43;;;5.69;78.11
75513;BME280;64090;49.770;18.760;2023-01-08T16:00:25;96974.89;;;5.73;78.10
75513;BME280;64090;49.770;18.760;2023-01-08T16:03:28;96975.11;;;5.75;77.99
75513;BME280;64090;49.770;18.760;2023-01-08T16:06:36;96973.75;;;5.79;78.08
75513;BME280;64090;49.770;18.760;2023-01-08T16:09:41;96972.52;;;5.88;78.25
75513;BME280;64090;49.770;18.760;2023-01-08T16:12:44;96972.41;;;5.95;78.06
75513;BME280;64090;49.770;18.760;2023-01-08T16:15:50;96970.63;;;6.02;77.81
75513;BME280;64090;49.770;18.760;2023-01-08T16:18:53;96973.48;;;6.09;77.82
75513;BME280;64090;49.770;18.760;2023-01-08T16:21:58;96972.60;;;6.19;77.54
75513;BME280;64090;49.770;18.760;2023-01-08T16:25:03;96975.79;;;6.28;77.51
75513;BME280;64090;49.770;18.760;2023-01-08T16:28:08;96975.84;;;6.33;77.39
75513;BME280;64090;49.770;18.760;2023-01-08T16:31:11;96972.08;;;6.39;77.34
75513;BME280;64090;49.770;18.760;2023-01-08T16:34:34;96977.74;;;6.43;77.51
75513;BME280;64090;49.770;18.760;2023-01-08T16:38:21;96978.03;;;6.46;77.30
75513;BME280;64090;49.770;18.760;2023-01-08T16:42:24;96977.13;;;6.52;77.24
75513;BME280;64090;49.770;18.760;2023-01-08T16:46:19;96977.19;;;6.60;76.88
75513;BME280;64090;49.770;18.760;2023-01-08T16:50:03;96976.59;;;6.66;76.56
75513;BME280;64090;49.770;18.760;2023-01-08T16:53:51;96963.65;;;6.70;75.82
75513;BME280;64090;49.770;18.760;2023-01-08T16:56:54;96961.46;;;6.74;76.02
75513;BME280;64090;49.770;18.760;2023-01-08T17:00:58;96960.08;;;6.75;75.69
75513;BME280;64090;49.770;18.760;2023-01-08T17:04:03;96958.90;;;6.77;76.11
75513;BME280;64090;49.770;18.760;2023-01-08T17:07:08;96952.04;;;6.79;75.87
75513;BME280;64090;49.770;18.760;2023-01-08T17:10:37;96951.39;;;6.80;75.68
75513;BME280;64090;49.770;18.760;2023-01-08T17:13:47;96963.39;;;6.81;76.15
75513;BME280;64090;49.770;18.760;2023-01-08T17:17:39;96954.96;;;6.79;76.06
75513;BME280;64090;49.770;18.760;2023-01-08T17:39:00;96966.80;;;6.83;76.36
75513;BME280;64090;49.770;18.760;2023-01-08T17:42:33;96961.69;;;6.82;76.43
75513;BME280;64090;49.770;18.760;2023-01-08T17:45:46;96957.61;;;6.80;76.35
75513;BME280;64090;49.770;18.760;2023-01-08T17:49:32;96952.20;;;6.80;76.32
75513;BME280;64090;49.770;18.760;2023-01-08T17:53:07;96943.87;;;6.79;76.43
75513;BME280;64090;49.770;18.760;2023-01-08T17:56:10;96938.63;;;6.79;75.87
75513;BME280;64090;49.770;18.760;2023-01-08T17:59:16;96937.58;;;6.81;75.81
75513;BME280;64090;49.770;18.760;2023-01-08T18:02:20;96942.17;;;6.83;76.11
75513;BME280;64090;49.770;18.760;2023-01-08T18:05:23;96940.50;;;6.82;76.25
75513;BME280;64090;49.770;18.760;2023-01-08T18:08:27;96939.77;;;6.81;76.14
75513;BME280;64090;49.770;18.760;2023-01-08T18:11:30;96942.20;;;6.82;76.37
75513;BME280;64090;49.770;18.760;2023-01-08T18:14:35;96931.80;;;6.82;76.27
75513;BME280;64090;49.770;18.760;2023-01-08T18:17:40;96937.05;;;6.85;76.27
75513;BME280;64090;49.770;18.760;2023-01-08T18:20:44;96937.63;;;6.86;76.24
75513;BME280;64090;49.770;18.760;2023-01-08T18:24:08;96937.19;;;6.87;76.49
75513;BME280;64090;49.770;18.760;2023-01-08T19:07:39;96870.55;;;6.67;77.17
75513;BME280;64090;49.770;18.760;2023-01-08T19:11:11;96868.20;;;6.65;77.15
75513;BME280;64090;49.770;18.760;2023-01-08T19:14:48;96867.34;;;6.64;77.15
75513;BME280;64090;49.770;18.760;2023-01-08T19:17:59;96865.70;;;6.66;77.25
75513;BME280;64090;49.770;18.760;2023-01-08T19:21:53;96868.20;;;6.69;77.12
75513;BME280;64090;49.770;18.760;2023-01-08T19:25:39;96863.69;;;6.73;77.05
75513;BME280;64090;49.770;18.760;2023-01-08T19:28:47;96862.07;;;6.75;77.06
75513;BME280;64090;49.770;18.760;2023-01-08T19:46:05;96838.95;;;6.79;77.48
75513;BME280;64090;49.770;18.760;2023-01-08T19:49:09;96838.21;;;6.81;77.61
75513;BME280;64090;49.770;18.760;2023-01-08T19:52:16;96832.95;;;6.80;77.51
75513;BME280;64090;49.770;18.760;2023-01-08T19:55:20;96830.41;;;6.83;77.28
75513;BME280;64090;49.770;18.760;2023-01-08T20:10:19;96821.30;;;6.92;77.71
75513;BME280;64090;49.770;18.760;2023-01-08T20:30:32;96802.23;;;6.93;77.81
75513;BME280;64090;49.770;18.760;2023-01-08T20:45:47;96797.20;;;6.93;78.03
75513;BME280;64090;49.770;18.760;2023-01-08T20:48:57;96791.27;;;6.94;78.10
75513;BME280;64090;49.770;18.760;2023-01-08T21:05:15;96764.95;;;6.78;76.19
75513;BME280;64090;49.770;18.760;2023-01-08T21:17:45;96758.95;;;6.49;76.31
75513;BME280;64090;49.770;18.760;2023-01-08T21:22:00;96746.86;;;6.39;76.47
75513;BME280;64090;49.770;18.760;2023-01-08T21:26:14;96742.40;;;6.30;76.67
75513;BME280;64090;49.770;18.760;2023-01-08T21:39:34;96731.02;;;6.18;76.37
75513;BME280;64090;49.770;18.760;2023-01-08T21:51:40;96733.19;;;6.06;77.23
75513;BME280;64090;49.770;18.760;2023-01-08T23:08:18;96658.10;;;4.53;81.43
75513;BME280;64090;49.770;18.760;2023-01-08T23:13:01;96650.10;;;4.30;80.80
75513;BME280;64090;49.770;18.760;2023-01-08T23:36:39;96601.49;;;3.55;83.00
